Time,TemperatureF,DewpointF,PressureIn,WindDirection,WindDirectionDegrees,WindSpeedMPH,WindSpeedGustMPH,Humidity,HourlyPrecipIn,Conditions,Clouds,dailyrainin,SoftwareType,DateUTC
2013-02-14 00:00:00,32.7,32.7,29.69,NNW,348,5.0,7.0,100,0.01,RA,,0.48,WeatherDisplay:10.37,2013-02-14 05:00:00,
2013-02-14 00:15:00,32.4,32.4,29.72,North,350,2.0,6.0,100,0.00,OVC,,0.48,WeatherDisplay:10.37,2013-02-14 05:15:00,
2013-02-14 00:30:00,32.5,32.5,29.72,NNW,341,3.0,7.0,100,0.00,OVC,,0.48,WeatherDisplay:10.37,2013-02-14 05:30:00,
2013-02-14 00:45:00,32.9,32.9,29.72,NNW,340,5.0,7.0,100,0.01,OVC,,0.50,WeatherDisplay:10.37,2013-02-14 05:45:00,
2013-02-14 01:00:00,33.1,33.1,29.72,NNW,330,7.0,8.0,100,0.01,RA,,0.51,WeatherDisplay:10.37,2013-02-14 06:00:00,
2013-02-14 01:15:00,33.3,33.3,29.75,NNW,333,7.0,9.0,100,0.00,OVC,,0.51,WeatherDisplay:10.37,2013-02-14 06:15:00,
2013-02-14 01:30:00,33.3,33.3,29.75,NNW,332,7.0,12.0,100,0.00,OVC,,0.51,WeatherDisplay:10.37,2013-02-14 06:30:00,
2013-02-14 01:45:00,33.4,33.4,29.75,NNW,335,8.0,11.0,100,0.01,RA,,0.52,WeatherDisplay:10.37,2013-02-14 06:45:00,
2013-02-14 02:00:00,33.4,33.4,29.78,NNW,336,8.0,9.0,100,0.00,OVC,,0.52,WeatherDisplay:10.37,2013-02-14 07:00:00,
2013-02-14 02:15:00,33.4,33.4,29.78,NNW,333,9.0,11.0,100,0.00,OVC,,0.52,WeatherDisplay:10.37,2013-02-14 07:15:00,
2013-02-14 02:30:00,33.6,33.6,29.78,NNW,333,9.0,11.0,100,0.00,OVC,,0.52,WeatherDisplay:10.37,2013-02-14 07:30:00,
2013-02-14 02:45:00,33.8,33.8,29.81,NW,324,8.0,10.0,100,0.00,OVC,,0.52,WeatherDisplay:10.37,2013-02-14 07:45:00,
2013-02-14 03:00:00,33.8,33.8,29.81,NW,323,8.0,10.0,100,0.00,OVC,,0.52,WeatherDisplay:10.37,2013-02-14 08:00:00,
2013-02-14 03:15:00,34.0,34.0,29.81,NW,322,8.0,10.0,100,0.00,OVC,,0.52,WeatherDisplay:10.37,2013-02-14 08:15:00,
2013-02-14 03:30:00,34.0,34.0,29.81,NW,319,6.0,7.0,100,0.00,OVC,,0.52,WeatherDisplay:10.37,2013-02-14 08:30:00,
2013-02-14 03:45:00,34.0,34.0,29.81,NNW,331,3.0,7.0,100,0.00,OVC,,0.52,WeatherDisplay:10.37,2013-02-14 08:45:00,
2013-02-14 04:00:00,34.0,34.0,29.81,NW,314,5.0,8.0,100,0.00,OVC,,0.52,WeatherDisplay:10.37,2013-02-14 09:00:00,
2013-02-14 04:15:00,34.0,34.0,29.84,NW,310,5.0,7.0,100,0.00,OVC,,0.52,WeatherDisplay:10.37,2013-02-14 09:15:00,
2013-02-14 04:30:00,33.8,33.8,29.84,NW,317,5.0,6.0,100,0.00,CLR,,0.52,WeatherDisplay:10.37,2013-02-14 09:30:00,
2013-02-14 04:45:00,33.8,33.8,29.84,NW,311,5.0,6.0,100,0.00,OVC,,0.52,WeatherDisplay:10.37,2013-02-14 09:45:00,
2013-02-14 05:00:00,34.3,34.3,29.87,NW,315,3.0,7.0,100,0.00,OVC,,0.52,WeatherDisplay:10.37,2013-02-14 10:00:00,
2013-02-14 05:15:00,34.5,34.5,29.87,NW,313,7.0,10.0,100,0.00,OVC,,0.52,WeatherDisplay:10.37,2013-02-14 10:15:00,
2013-02-14 05:30:00,34.7,34.7,29.87,NW,319,7.0,10.0,100,0.00,OVC,,0.52,WeatherDisplay:10.37,2013-02-14 10:30:00,
2013-02-14 05:45:00,34.7,34.7,29.90,NW,308,6.0,7.0,100,0.00,OVC,,0.52,WeatherDisplay:10.37,2013-02-14 10:45:00,
2013-02-14 06:00:00,34.7,34.7,29.90,WNW,303,6.0,9.0,100,0.00,OVC,,0.52,WeatherDisplay:10.37,2013-02-14 11:00:00,
2013-02-14 06:15:00,34.3,34.3,29.90,WNW,301,7.0,8.0,100,0.00,OVC,,0.52,WeatherDisplay:10.37,2013-02-14 11:15:00,
2013-02-14 06:30:00,34.3,34.3,29.90,WNW,300,8.0,10.0,100,0.00,OVC,,0.52,WeatherDisplay:10.37,2013-02-14 11:30:00,
2013-02-14 06:45:00,34.3,34.3,29.93,NW,305,7.0,7.0,100,0.00,BKN,,0.52,WeatherDisplay:10.37,2013-02-14 11:45:00,
2013-02-14 07:00:00,34.2,34.2,29.93,WNW,299,7.0,10.0,100,0.00,BKN,,0.00,WeatherDisplay:10.37,2013-02-14 12:00:00,
2013-02-14 07:15:00,34.2,34.2,29.93,NW,305,6.0,7.0,100,0.00,OVC,,0.00,WeatherDisplay:10.37,2013-02-14 12:15:00,
2013-02-14 07:30:00,34.5,34.3,29.93,NNW,335,3.0,7.0,99,0.00,OVC,,0.00,WeatherDisplay:10.37,2013-02-14 12:30:00,
2013-02-14 07:45:00,34.9,34.6,29.95,NW,305,6.0,8.0,99,0.00,OVC,,0.00,WeatherDisplay:10.37,2013-02-14 12:45:00,
2013-02-14 08:00:00,35.1,34.3,29.95,NW,321,5.0,7.0,97,0.00,OVC,,0.00,WeatherDisplay:10.37,2013-02-14 13:00:00,
2013-02-14 08:15:00,35.6,34.0,29.95,NW,310,7.0,10.0,94,0.00,CLR,,0.00,WeatherDisplay:10.37,2013-02-14 13:15:00,
2013-02-14 08:30:00,35.8,33.4,29.99,WNW,301,7.0,9.0,91,0.00,CLR,,0.00,WeatherDisplay:10.37,2013-02-14 13:30:00,
2013-02-14 08:45:00,36.5,33.3,29.99,NW,308,7.0,8.0,88,0.00,CLR,,0.00,WeatherDisplay:10.37,2013-02-14 13:45:00,
2013-02-14 09:00:00,36.7,32.6,29.99,NW,307,6.0,6.0,85,0.00,OVC,,0.00,WeatherDisplay:10.37,2013-02-14 14:00:00,
2013-02-14 09:15:00,37.4,32.1,29.99,NW,314,6.0,31.0,81,0.00,OVC,,0.00,WeatherDisplay:10.37,2013-02-14 14:15:00,
2013-02-14 09:30:00,38.7,32.4,29.99,WNW,300,9.0,31.0,78,0.00,OVC,,0.00,WeatherDisplay:10.37,2013-02-14 14:30:00,
2013-02-14 09:45:00,39.2,31.6,29.99,WNW,290,5.0,7.0,74,0.00,OVC,,0.00,WeatherDisplay:10.37,2013-02-14 14:45:00,
2013-02-14 10:00:00,38.7,30.7,29.99,WNW,294,6.0,8.0,73,0.00,CLR,,0.00,WeatherDisplay:10.37,2013-02-14 15:00:00,
2013-02-14 10:15:00,38.8,30.6,29.99,West,281,7.0,10.0,72,0.00,CLR,,0.00,WeatherDisplay:10.37,2013-02-14 15:15:00,
2013-02-14 10:30:00,39.2,30.6,29.99,WNW,289,8.0,9.0,71,0.00,CLR,,0.00,WeatherDisplay:10.37,2013-02-14 15:30:00,
2013-02-14 10:45:00,39.6,30.6,29.99,NW,309,8.0,10.0,70,0.00,BKN,,0.00,WeatherDisplay:10.37,2013-02-14 15:45:00,
2013-02-14 11:00:00,39.4,29.7,29.99,NW,310,7.0,10.0,68,0.00,OVC,,0.00,WeatherDisplay:10.37,2013-02-14 16:00:00,
2013-02-14 11:15:00,40.5,30.7,29.99,WNW,294,7.0,10.0,68,0.00,OVC,,0.00,WeatherDisplay:10.37,2013-02-14 16:15:00,
2013-02-14 11:30:00,40.5,30.4,29.99,NW,319,6.0,8.0,67,0.00,OVC,,0.00,WeatherDisplay:10.37,2013-02-14 16:30:00,
2013-02-14 11:45:00,40.1,29.3,29.99,WNW,299,7.0,8.0,65,0.00,BKN,,0.00,WeatherDisplay:10.37,2013-02-14 16:45:00,
2013-02-14 12:00:00,41.4,30.1,29.99,WNW,284,7.0,8.0,64,0.00,FEW,,0.00,WeatherDisplay:10.37,2013-02-14 17:00:00,
2013-02-14 12:15:00,41.2,28.7,29.99,WNW,286,7.0,12.0,61,0.00,FEW,,0.00,WeatherDisplay:10.37,2013-02-14 17:15:00,
2013-02-14 12:30:00,41.4,29.7,29.99,WNW,286,8.0,9.0,63,0.00,FEW,,0.00,WeatherDisplay:10.37,2013-02-14 17:30:00,
2013-02-14 12:45:00,40.8,28.8,29.99,WNW,284,7.0,9.0,62,0.00,SCT,,0.00,WeatherDisplay:10.37,2013-02-14 17:45:00,
2013-02-14 13:00:00,41.5,29.1,29.99,NW,311,7.0,10.0,61,0.00,FEW,,0.00,WeatherDisplay:10.37,2013-02-14 18:00:00,
2013-02-14 13:15:00,41.5,29.5,29.99,WNW,297,9.0,11.0,62,0.00,FEW,,0.00,WeatherDisplay:10.37,2013-02-14 18:15:00,
2013-02-14 13:30:00,41.4,28.5,29.99,NW,306,9.0,12.0,60,0.00,FEW,,0.00,WeatherDisplay:10.37,2013-02-14 18:30:00,
2013-02-14 13:45:00,42.1,29.2,29.99,West,267,7.0,8.0,60,0.00,CLR,,0.00,WeatherDisplay:10.37,2013-02-14 18:45:00,
2013-02-14 14:00:00,42.3,28.9,29.99,WNW,285,7.0,10.0,59,0.00,CLR,,0.00,WeatherDisplay:10.37,2013-02-14 19:00:00,
2013-02-14 14:15:00,43.0,28.8,29.99,NW,311,7.0,8.0,57,0.00,CLR,,0.00,WeatherDisplay:10.37,2013-02-14 19:15:00,
2013-02-14 14:30:00,43.0,27.9,29.99,West,276,7.0,9.0,55,0.00,CLR,,0.00,WeatherDisplay:10.37,2013-02-14 19:30:00,
2013-02-14 14:45:00,42.8,28.2,29.99,WNW,289,7.0,9.0,56,0.00,CLR,,0.00,WeatherDisplay:10.37,2013-02-14 19:45:00,
2013-02-14 15:00:00,43.0,28.3,29.99,WNW,300,5.0,6.0,56,0.00,CLR,,0.00,WeatherDisplay:10.37,2013-02-14 20:00:00,
2013-02-14 15:15:00,43.2,28.5,29.99,WNW,282,5.0,5.0,56,0.00,CLR,,0.00,WeatherDisplay:10.37,2013-02-14 20:15:00,
2013-02-14 15:30:00,42.8,28.2,29.99,NW,313,5.0,6.0,56,0.00,CLR,,0.00,WeatherDisplay:10.37,2013-02-14 20:30:00,
2013-02-14 15:45:00,43.2,28.9,29.99,West,261,3.0,6.0,57,0.00,CLR,,0.00,WeatherDisplay:10.37,2013-02-14 20:45:00,
2013-02-14 16:00:00,42.8,28.2,29.99,WNW,290,5.0,6.0,56,0.00,CLR,,0.00,WeatherDisplay:10.37,2013-02-14 21:00:00,
2013-02-14 16:15:00,42.4,28.3,29.99,WNW,293,3.0,4.0,57,0.00,CLR,,0.00,WeatherDisplay:10.37,2013-02-14 21:15:00,
2013-02-14 16:30:00,42.3,28.1,30.01,NW,310,1.0,2.0,57,0.00,CLR,,0.00,WeatherDisplay:10.37,2013-02-14 21:30:00,
2013-02-14 16:45:00,41.7,28.4,29.99,West,278,0.0,2.0,59,0.00,CLR,,0.00,WeatherDisplay:10.37,2013-02-14 21:45:00,
2013-02-14 17:00:00,40.3,27.9,29.99,WNW,293,1.0,2.0,61,0.00,CLR,,0.00,WeatherDisplay:10.37,2013-02-14 22:00:00,
2013-02-14 17:15:00,39.2,27.7,29.99,West,260,0.0,0.0,63,0.00,CLR,,0.00,WeatherDisplay:10.37,2013-02-14 22:15:00,
2013-02-14 17:30:00,37.6,26.9,29.99,SSW,201,0.0,0.0,65,0.00,CLR,,0.00,WeatherDisplay:10.37,2013-02-14 22:30:00,
2013-02-14 17:45:00,36.9,28.0,30.01,SSE,156,0.0,1.0,70,0.00,CLR,,0.00,WeatherDisplay:10.37,2013-02-14 22:45:00,
2013-02-14 18:00:00,36.0,27.8,30.01,SSE,162,1.0,5.0,72,0.00,CLR,,0.00,WeatherDisplay:10.37,2013-02-14 23:00:00,
2013-02-14 18:15:00,35.2,28.1,30.01,SSE,167,0.0,1.0,75,0.00,CLR,,0.00,WeatherDisplay:10.37,2013-02-14 23:15:00,
2013-02-14 18:30:00,34.5,28.1,30.01,SSE,164,1.0,3.0,77,0.00,CLR,,0.00,WeatherDisplay:10.37,2013-02-14 23:30:00,
2013-02-14 18:45:00,34.0,28.2,30.01,SSW,202,0.0,1.0,79,0.00,CLR,,0.00,WeatherDisplay:10.37,2013-02-14 23:45:00,
2013-02-14 19:00:00,33.3,28.1,30.04,SW,230,0.0,0.0,81,0.00,CLR,,0.00,WeatherDisplay:10.37,2013-02-15 00:00:00,
2013-02-14 19:15:00,32.7,27.8,30.04,South,177,0.0,0.0,82,0.00,CLR,,0.00,WeatherDisplay:10.37,2013-02-15 00:15:00,
2013-02-14 19:30:00,32.4,28.1,30.04,South,190,0.0,0.0,84,0.00,CLR,,0.00,WeatherDisplay:10.37,2013-02-15 00:30:00,
2013-02-14 19:45:00,32.0,28.0,30.04,SE,142,0.0,0.0,85,0.00,CLR,,0.00,WeatherDisplay:10.37,2013-02-15 00:45:00,
2013-02-14 20:00:00,31.8,28.1,30.04,East,95,0.0,0.0,86,0.00,CLR,,0.00,WeatherDisplay:10.37,2013-02-15 01:00:00,
2013-02-14 20:15:00,31.5,28.0,30.04,ENE,70,0.0,0.0,87,0.00,CLR,,0.00,WeatherDisplay:10.37,2013-02-15 01:15:00,
2013-02-14 20:30:00,31.3,28.1,30.04,SSE,150,0.0,0.0,88,0.00,CLR,,0.00,WeatherDisplay:10.37,2013-02-15 01:30:00,
2013-02-14 20:45:00,30.9,27.8,30.04,SSE,150,0.0,0.0,88,0.00,CLR,,0.00,WeatherDisplay:10.37,2013-02-15 01:45:00,
2013-02-14 21:00:00,31.5,28.6,30.04,SE,135,0.0,0.0,89,0.00,CLR,,0.00,WeatherDisplay:10.37,2013-02-15 02:00:00,
2013-02-14 21:15:00,30.9,28.3,30.04,SSW,211,0.0,0.0,90,0.00,CLR,,0.00,WeatherDisplay:10.37,2013-02-15 02:15:00,
2013-02-14 21:30:00,30.7,28.2,30.04,SW,216,0.0,0.0,90,0.00,CLR,,0.00,WeatherDisplay:10.37,2013-02-15 02:30:00,
2013-02-14 21:45:00,30.9,28.6,30.04,ESE,115,0.0,0.0,91,0.00,CLR,,0.00,WeatherDisplay:10.37,2013-02-15 02:45:00,
2013-02-14 22:00:00,30.9,28.9,30.04,SW,219,0.0,0.0,92,0.00,CLR,,0.00,WeatherDisplay:10.37,2013-02-15 03:00:00,
2013-02-14 22:30:00,31.1,29.0,30.04,South,174,0.0,0.0,92,0.00,CLR,,0.00,WeatherDisplay:10.37,2013-02-15 03:30:00,
2013-02-14 22:45:00,30.4,28.6,30.04,South,171,0.0,0.0,93,0.00,CLR,,0.00,WeatherDisplay:10.37,2013-02-15 03:45:00,
2013-02-14 23:00:00,30.6,28.8,30.04,SE,140,0.0,0.0,93,0.00,CLR,,0.00,WeatherDisplay:10.37,2013-02-15 04:00:00,
2013-02-14 23:15:00,31.3,30.0,30.04,SE,137,0.0,0.0,95,0.00,CLR,,0.00,WeatherDisplay:10.37,2013-02-15 04:15:00,
2013-02-14 23:30:00,31.3,30.0,30.04,SSE,165,0.0,0.0,95,0.00,CLR,,0.00,WeatherDisplay:10.37,2013-02-15 04:30:00,
2013-02-14 23:45:00,30.7,29.5,30.04,SSE,165,0.0,0.0,95,0.00,CLR,,0.00,WeatherDisplay:10.37,2013-02-15 04:45:00,